Time;durP1;ratioP1;P1;durP2;ratioP2;P2;SDS_P1;SDS_P2;PMS_P1;PMS_P2;Temp;Humidity;BMP_temperature;BMP_pressure;BME280_temperature;BME280_humidity;BME280_pressure;Samples;Min_cycle;Max_cycle;Signal;HPM_P1;HPM_P2
2023/04/22 00:00:11;;;;;;;6.68;3.78;;;13.00;67.60;;;;;;5017382;28;20041;-67
2023/04/22 00:02:37;;;;;;;4.90;3.17;;;13.00;67.50;;;;;;5017897;28;20030;-67
2023/04/22 00:05:07;;;;;;;6.15;3.42;;;13.00;67.50;;;;;;5017208;28;20030;-66
2023/04/22 00:07:33;;;;;;;4.60;3.08;;;13.00;67.40;;;;;;5017564;28;20045;-66
2023/04/22 00:09:59;;;;;;;3.95;3.10;;;13.00;67.50;;;;;;5016326;28;20049;-66
2023/04/22 00:12:25;;;;;;;5.22;3.08;;;13.10;67.30;;;;;;5016853;28;20423;-66
2023/04/22 00:14:51;;;;;;;4.70;3.40;;;13.10;67.40;;;;;;5017182;28;20022;-66
2023/04/22 00:17:17;;;;;;;6.07;2.95;;;13.10;67.40;;;;;;5017677;28;20084;-66
2023/04/22 00:19:43;;;;;;;3.97;3.20;;;13.10;67.20;;;;;;5017605;28;20048;-66
2023/04/22 00:22:10;;;;;;;4.13;3.30;;;13.10;67.20;;;;;;5016985;28;20439;-66
2023/04/22 00:24:35;;;;;;;5.97;3.53;;;13.10;67.10;;;;;;5017178;28;20113;-66
2023/04/22 00:27:01;;;;;;;7.10;3.80;;;13.10;67.10;;;;;;5017229;28;20435;-66
2023/04/22 00:29:27;;;;;;;4.50;3.40;;;13.10;67.30;;;;;;5016912;28;20030;-66
2023/04/22 00:31:54;;;;;;;6.57;3.92;;;13.10;67.50;;;;;;5017314;28;20090;-66
2023/04/22 00:34:20;;;;;;;6.57;3.97;;;13.00;67.50;;;;;;5016838;28;20026;-66
2023/04/22 00:36:46;;;;;;;6.47;4.28;;;12.90;67.60;;;;;;5017055;28;20022;-66
2023/04/22 00:39:12;;;;;;;7.32;4.15;;;12.80;67.90;;;;;;5016731;28;20033;-66
2023/04/22 00:41:39;;;;;;;7.28;4.25;;;12.80;68.30;;;;;;5016812;28;20362;-66
2023/04/22 00:44:09;;;;;;;7.15;4.40;;;12.70;68.20;;;;;;5016592;28;20466;-66
2023/04/22 00:46:37;;;;;;;9.82;4.32;;;12.60;68.50;;;;;;5016553;28;20485;-66
2023/04/22 00:49:04;;;;;;;7.35;4.50;;;12.60;68.60;;;;;;5016505;28;20041;-67
2023/04/22 00:51:31;;;;;;;7.57;4.13;;;12.50;68.70;;;;;;5016549;28;20340;-66
2023/04/22 00:53:57;;;;;;;6.80;4.60;;;12.50;68.60;;;;;;5016417;28;20084;-66
2023/04/22 00:56:28;;;;;;;6.45;4.00;;;12.50;68.80;;;;;;5016364;28;20438;-66
2023/04/22 00:58:54;;;;;;;6.15;3.97;;;12.50;68.60;;;;;;5016655;28;20037;-66
2023/04/22 01:01:21;;;;;;;7.70;4.03;;;12.50;68.80;;;;;;5016473;28;20030;-66
2023/04/22 01:03:48;;;;;;;5.20;3.53;;;12.50;68.80;;;;;;5016200;28;20455;-66
2023/04/22 01:06:15;;;;;;;5.57;3.38;;;12.50;68.60;;;;;;5016255;28;20049;-66
2023/04/22 01:08:41;;;;;;;5.90;3.60;;;12.50;68.60;;;;;;5016246;28;20137;-67
2023/04/22 01:11:07;;;;;;;6.38;4.13;;;12.50;68.40;;;;;;5016560;28;20359;-67
2023/04/22 01:13:36;;;;;;;5.20;3.40;;;12.50;68.60;;;;;;5016686;28;20026;-66
2023/04/22 01:16:07;;;;;;;4.90;3.50;;;12.50;68.30;;;;;;5015104;28;20363;-67
2023/04/22 01:18:36;;;;;;;4.68;3.15;;;12.50;68.50;;;;;;5016366;28;20105;-67
2023/04/22 01:21:03;;;;;;;6.28;3.38;;;12.50;68.40;;;;;;5016244;28;20030;-67
2023/04/22 01:23:29;;;;;;;5.28;3.45;;;12.50;68.40;;;;;;5015913;28;20365;-67
2023/04/22 01:25:56;;;;;;;4.53;3.20;;;12.50;68.40;;;;;;5014950;28;20367;-67
2023/04/22 01:28:22;;;;;;;7.03;3.63;;;12.50;68.30;;;;;;5016164;28;20037;-66
2023/04/22 01:30:49;;;;;;;5.15;3.50;;;12.50;68.30;;;;;;5016040;28;20022;-67
2023/04/22 01:33:15;;;;;;;4.28;3.20;;;12.40;68.50;;;;;;5015840;28;20161;-66
2023/04/22 01:35:41;;;;;;;4.70;3.45;;;12.40;68.50;;;;;;5016079;28;20050;-67
2023/04/22 01:38:10;;;;;;;5.45;3.35;;;12.40;68.60;;;;;;5015806;28;20026;-66
2023/04/22 01:40:37;;;;;;;4.30;3.13;;;12.30;68.70;;;;;;5015699;28;20040;-67
2023/04/22 01:43:04;;;;;;;5.82;3.63;;;12.30;68.80;;;;;;5015648;28;20026;-67
2023/04/22 01:45:30;;;;;;;5.45;3.30;;;12.20;68.90;;;;;;5016144;28;20036;-67
2023/04/22 01:47:57;;;;;;;5.07;3.33;;;12.20;68.90;;;;;;5015584;28;20030;-67
2023/04/22 01:50:23;;;;;;;5.43;3.60;;;12.20;69.00;;;;;;5015644;28;20042;-67
2023/04/22 01:52:49;;;;;;;5.03;3.78;;;12.20;69.10;;;;;;5015389;28;20045;-67
2023/04/22 01:55:15;;;;;;;6.60;3.70;;;12.10;69.10;;;;;;5015584;28;20443;-67
2023/04/22 01:57:41;;;;;;;9.63;5.00;;;12.10;69.20;;;;;;5015690;28;20034;-67
2023/04/22 02:00:08;;;;;;;8.65;4.47;;;12.10;69.30;;;;;;5015540;28;20072;-67
2023/04/22 02:02:34;;;;;;;8.73;4.93;;;12.10;69.30;;;;;;5015996;28;20029;-67
2023/04/22 02:05:00;;;;;;;9.50;4.72;;;12.00;69.40;;;;;;5015421;28;20080;-67
2023/04/22 02:07:26;;;;;;;9.27;4.80;;;12.00;69.40;;;;;;5015479;28;20030;-67
2023/04/22 02:09:52;;;;;;;9.95;4.85;;;12.00;69.50;;;;;;5015483;28;20022;-67
2023/04/22 02:12:18;;;;;;;8.48;4.60;;;11.90;69.50;;;;;;5015902;28;20021;-66
2023/04/22 02:14:44;;;;;;;8.25;4.35;;;11.90;69.60;;;;;;5015437;28;20029;-66
2023/04/22 02:17:10;;;;;;;9.43;5.13;;;11.90;69.70;;;;;;5015938;28;20030;-66
2023/04/22 02:19:36;;;;;;;8.52;4.63;;;11.90;69.90;;;;;;5015650;28;20018;-66
2023/04/22 02:22:02;;;;;;;11.05;4.60;;;11.90;69.90;;;;;;5015275;28;20037;-66
2023/04/22 02:24:28;;;;;;;9.63;4.70;;;11.90;70.00;;;;;;5015505;28;20048;-66
2023/04/22 02:26:54;;;;;;;8.20;4.53;;;11.80;70.00;;;;;;5015318;28;20398;-66
2023/04/22 02:29:20;;;;;;;7.88;4.63;;;11.80;70.00;;;;;;5014317;28;20358;-67
2023/04/22 02:31:46;;;;;;;5.95;3.67;;;11.80;70.30;;;;;;5015473;28;20026;-67
2023/04/22 02:34:12;;;;;;;7.97;4.65;;;11.80;70.30;;;;;;5015203;28;20068;-67
2023/04/22 02:36:38;;;;;;;7.30;4.30;;;11.70;70.30;;;;;;5014220;28;20077;-67
2023/04/22 02:39:04;;;;;;;7.43;4.72;;;11.70;70.40;;;;;;5014213;28;20033;-67
2023/04/22 02:41:31;;;;;;;7.40;4.70;;;11.70;70.50;;;;;;5015109;28;20033;-67
2023/04/22 02:43:56;;;;;;;9.98;4.18;;;11.70;70.60;;;;;;5014106;28;20076;-67
2023/04/22 02:46:22;;;;;;;6.80;4.57;;;11.60;70.70;;;;;;5015118;28;20029;-67
2023/04/22 02:48:48;;;;;;;8.43;4.35;;;11.60;70.70;;;;;;5015074;28;20037;-67
2023/04/22 02:51:14;;;;;;;7.50;4.50;;;11.60;70.80;;;;;;5013820;28;20122;-67
2023/04/22 02:53:40;;;;;;;8.02;4.32;;;11.60;70.90;;;;;;5015655;28;20026;-67
2023/04/22 02:56:07;;;;;;;7.65;4.45;;;11.60;70.90;;;;;;5015315;28;20075;-67
2023/04/22 02:58:34;;;;;;;8.07;4.28;;;11.60;70.90;;;;;;5014959;28;20041;-67
2023/04/22 03:01:00;;;;;;;7.68;4.57;;;11.60;70.90;;;;;;5015195;28;20034;-67
2023/04/22 03:03:26;;;;;;;8.90;5.10;;;11.60;71.10;;;;;;5015426;28;20539;-67
2023/04/22 03:05:52;;;;;;;6.97;4.80;;;11.60;71.40;;;;;;5014983;28;20022;-67
2023/04/22 03:08:18;;;;;;;6.93;4.43;;;11.50;71.60;;;;;;5014940;28;20072;-67
2023/04/22 03:10:44;;;;;;;8.90;4.88;;;11.40;71.50;;;;;;5017427;28;20022;-67
2023/04/22 03:13:12;;;;;;;9.00;4.70;;;11.40;71.50;;;;;;5017432;28;20037;-67
2023/04/22 03:15:40;;;;;;;7.78;4.65;;;11.40;71.50;;;;;;5018899;28;20117;-67
2023/04/22 03:18:06;;;;;;;7.72;4.72;;;11.40;71.50;;;;;;5018257;28;20486;-67
2023/04/22 03:20:32;;;;;;;6.88;4.43;;;11.40;71.60;;;;;;5018484;28;20030;-67
2023/04/22 03:22:58;;;;;;;6.28;4.35;;;11.40;71.80;;;;;;5017136;28;20068;-67
2023/04/22 03:25:24;;;;;;;8.15;5.05;;;11.40;71.80;;;;;;5018069;28;20057;-67
2023/04/22 03:27:50;;;;;;;8.43;4.65;;;11.40;71.90;;;;;;5018647;28;20113;-67
2023/04/22 03:30:16;;;;;;;8.55;4.72;;;11.40;72.00;;;;;;5018327;28;20036;-67
2023/04/22 03:32:42;;;;;;;7.18;4.50;;;11.40;72.10;;;;;;5018211;28;20100;-67
2023/04/22 03:35:08;;;;;;;6.85;4.57;;;11.30;72.10;;;;;;5018241;28;20068;-67
2023/04/22 03:37:34;;;;;;;8.40;5.10;;;11.30;72.10;;;;;;5017927;28;20037;-67
2023/04/22 03:40:00;;;;;;;7.50;4.78;;;11.30;72.20;;;;;;5018411;28;20034;-67
2023/04/22 03:42:26;;;;;;;8.05;5.03;;;11.30;72.70;;;;;;5017758;28;20333;-67
2023/04/22 03:44:52;;;;;;;7.43;4.68;;;11.20;72.60;;;;;;5018456;28;20030;-67
2023/04/22 03:47:18;;;;;;;7.15;5.00;;;11.20;72.50;;;;;;5017974;28;20029;-67
2023/04/22 03:49:44;;;;;;;9.32;4.97;;;11.20;72.40;;;;;;5017969;28;20096;-67
2023/04/22 03:52:10;;;;;;;7.82;5.18;;;11.20;72.70;;;;;;5017479;28;20066;-67
2023/04/22 03:54:36;;;;;;;7.40;5.22;;;11.20;72.70;;;;;;5017859;28;20450;-67
2023/04/22 03:57:02;;;;;;;9.07;5.70;;;11.20;72.90;;;;;;5017854;28;20036;-67
2023/04/22 03:59:28;;;;;;;8.90;5.13;;;11.10;73.10;;;;;;5018054;28;20033;-67
2023/04/22 04:01:53;;;;;;;9.13;5.63;;;11.10;73.10;;;;;;5017458;28;20105;-67
2023/04/22 04:04:21;;;;;;;7.68;5.15;;;11.10;73.30;;;;;;5017341;28;20080;-66
2023/04/22 04:06:48;;;;;;;9.65;5.88;;;11.00;73.40;;;;;;5017323;28;20025;-66
2023/04/22 04:09:14;;;;;;;7.70;5.07;;;11.00;73.40;;;;;;5017582;28;20049;-66
2023/04/22 04:11:40;;;;;;;9.68;5.78;;;11.00;73.40;;;;;;5017415;28;20463;-66
2023/04/22 04:14:06;;;;;;;11.63;6.63;;;10.90;73.70;;;;;;5017266;28;20057;-66
2023/04/22 04:16:33;;;;;;;11.13;6.35;;;10.90;74.00;;;;;;5017179;28;20029;-66
2023/04/22 04:18:59;;;;;;;11.65;6.07;;;10.90;73.90;;;;;;5016523;28;20030;-66
2023/04/22 04:21:25;;;;;;;9.15;6.18;;;10.90;73.70;;;;;;5016771;28;20030;-66
2023/04/22 04:23:51;;;;;;;9.70;5.93;;;10.90;73.60;;;;;;5017004;28;20029;-66
2023/04/22 04:26:19;;;;;;;10.57;6.45;;;11.00;73.50;;;;;;5017279;28;20022;-66
2023/04/22 04:28:46;;;;;;;9.15;5.55;;;11.00;73.40;;;;;;5016136;28;20104;-66
2023/04/22 04:31:11;;;;;;;8.98;5.60;;;11.00;73.50;;;;;;5016813;28;20045;-66
2023/04/22 04:33:37;;;;;;;9.75;6.15;;;11.00;73.30;;;;;;5017423;28;20068;-66
2023/04/22 04:36:04;;;;;;;9.23;5.82;;;11.10;73.40;;;;;;5017111;28;20029;-66
2023/04/22 04:38:30;;;;;;;10.10;5.68;;;11.10;73.30;;;;;;5016667;28;20466;-66
2023/04/22 04:40:56;;;;;;;11.75;6.45;;;11.20;73.50;;;;;;5016702;28;20029;-66
2023/04/22 04:43:24;;;;;;;9.82;6.53;;;11.20;73.90;;;;;;5017180;28;20385;-66
2023/04/22 04:45:51;;;;;;;11.23;6.20;;;11.20;73.90;;;;;;5016581;28;20041;-66
2023/04/22 04:48:18;;;;;;;12.30;7.07;;;11.20;73.90;;;;;;5016897;28;20058;-66
2023/04/22 04:50:45;;;;;;;11.80;6.85;;;11.20;74.10;;;;;;5016764;28;20100;-66
2023/04/22 04:53:12;;;;;;;9.73;6.13;;;11.20;74.20;;;;;;5016351;28;20042;-66
2023/04/22 04:55:38;;;;;;;10.40;6.03;;;11.20;74.50;;;;;;5016518;28;20018;-66
2023/04/22 04:58:04;;;;;;;8.98;5.68;;;11.20;74.50;;;;;;5016450;28;20049;-66
2023/04/22 05:00:31;;;;;;;9.98;6.03;;;11.20;74.10;;;;;;5016947;28;20030;-66
2023/04/22 05:02:57;;;;;;;10.00;6.22;;;11.30;74.00;;;;;;5016515;28;20030;-67
2023/04/22 05:05:22;;;;;;;8.38;5.50;;;11.30;74.00;;;;;;5016264;28;20081;-66
2023/04/22 05:07:50;;;;;;;9.07;6.25;;;11.40;74.10;;;;;;5016305;28;20026;-66
2023/04/22 05:10:15;;;;;;;9.95;6.38;;;11.60;74.30;;;;;;5016769;28;20032;-66
2023/04/22 05:12:45;;;;;;;12.38;5.60;;;11.70;74.50;;;;;;5016154;28;20096;-67
2023/04/22 05:15:11;;;;;;;13.65;6.35;;;11.90;74.20;;;;;;5016097;28;20108;-67
2023/04/22 05:17:36;;;;;;;10.45;6.32;;;12.20;74.20;;;;;;5016089;28;20025;-67
2023/04/22 05:20:03;;;;;;;11.07;6.75;;;12.50;74.00;;;;;;5016335;28;20391;-66
2023/04/22 05:22:29;;;;;;;12.32;6.85;;;12.80;73.70;;;;;;5015980;28;20042;-66
2023/04/22 05:24:55;;;;;;;9.60;6.20;;;13.00;72.70;;;;;;5016494;28;20029;-66
2023/04/22 05:27:21;;;;;;;8.80;5.95;;;13.40;72.90;;;;;;5016244;28;20026;-66
2023/04/22 05:29:47;;;;;;;12.73;6.65;;;13.90;72.80;;;;;;5015977;28;20045;-66
2023/04/22 05:32:13;;;;;;;10.15;6.15;;;14.30;71.80;;;;;;5015184;28;20025;-67
2023/04/22 05:34:39;;;;;;;8.90;5.70;;;14.80;70.20;;;;;;5016099;28;20030;-67
2023/04/22 05:37:05;;;;;;;10.77;6.00;;;15.00;69.10;;;;;;5016096;28;20030;-67
2023/04/22 05:39:32;;;;;;;10.77;5.95;;;15.10;67.90;;;;;;5016048;28;20160;-67
2023/04/22 05:41:58;;;;;;;9.00;5.90;;;15.20;67.80;;;;;;5015666;28;20108;-67
2023/04/22 05:44:24;;;;;;;10.20;6.25;;;15.20;67.80;;;;;;5015884;28;20127;-67
2023/04/22 05:46:49;;;;;;;9.15;6.05;;;15.10;67.80;;;;;;5015658;28;20450;-67
2023/04/22 05:49:15;;;;;;;9.63;6.32;;;15.10;67.90;;;;;;5015702;28;20022;-67
2023/04/22 05:51:42;;;;;;;12.40;6.57;;;15.20;68.00;;;;;;5015381;28;20052;-67
2023/04/22 05:54:08;;;;;;;12.40;6.20;;;15.20;67.80;;;;;;5015603;28;20030;-67
2023/04/22 05:56:34;;;;;;;10.00;6.68;;;15.30;67.40;;;;;;5016133;28;20032;-66
2023/04/22 05:58:59;;;;;;;10.30;6.97;;;15.30;67.20;;;;;;5015627;28;20101;-66
2023/04/22 06:01:26;;;;;;;12.20;6.93;;;15.40;67.20;;;;;;5016020;28;20397;-67
2023/04/22 06:03:52;;;;;;;13.18;7.63;;;15.40;67.00;;;;;;5015474;28;20117;-67
2023/04/22 06:06:18;;;;;;;9.55;6.60;;;15.60;66.90;;;;;;5015543;28;20029;-67
2023/04/22 06:08:44;;;;;;;8.85;6.47;;;15.70;66.40;;;;;;5016002;28;20041;-67
2023/04/22 06:11:10;;;;;;;10.10;6.93;;;15.90;66.50;;;;;;5015616;28;20025;-67
2023/04/22 06:13:36;;;;;;;9.63;6.53;;;16.10;65.90;;;;;;5015474;28;20026;-70
2023/04/22 06:16:03;;;;;;;9.77;5.72;;;16.40;65.50;;;;;;5015939;28;20033;-70
2023/04/22 06:18:31;;;;;;;9.45;5.72;;;16.60;65.30;;;;;;5014241;28;20030;-71
2023/04/22 06:20:57;;;;;;;10.63;6.18;;;16.90;65.30;;;;;;5015515;28;20153;-69
2023/04/22 06:23:23;;;;;;;9.80;6.30;;;17.30;62.90;;;;;;5016412;28;20108;-69
2023/04/22 06:25:48;;;;;;;9.82;7.15;;;17.50;62.90;;;;;;5034961;28;20108;-60
2023/04/22 06:28:14;;;;;;;61.47;30.20;;;17.60;61.10;;;;;;5035003;28;20031;-73
2023/04/22 06:30:40;;;;;;;10.52;7.63;;;17.60;62.20;;;;;;5035317;28;20032;-72
2023/04/22 06:33:06;;;;;;;11.82;6.78;;;17.70;62.20;;;;;;5035067;28;20026;-75
2023/04/22 06:35:32;;;;;;;10.63;6.80;;;17.80;61.40;;;;;;5034859;28;20355;-75
2023/04/22 06:37:58;;;;;;;10.93;6.75;;;18.00;61.50;;;;;;5033831;28;20029;-76
2023/04/22 06:40:24;;;;;;;9.23;6.32;;;18.10;61.50;;;;;;5030009;28;20075;-76
2023/04/22 06:42:50;;;;;;;7.97;6.03;;;18.40;61.00;;;;;;5033183;28;20037;-75
2023/04/22 06:45:16;;;;;;;8.50;6.40;;;18.50;60.70;;;;;;5038285;28;20025;-76
2023/04/22 06:47:42;;;;;;;9.20;6.38;;;18.70;60.50;;;;;;5038769;28;20343;-76
2023/04/22 06:50:09;;;;;;;10.18;7.30;;;18.90;60.30;;;;;;5038694;28;20030;-76
2023/04/22 06:52:35;;;;;;;10.23;7.25;;;19.00;59.60;;;;;;5038320;28;20103;-76
2023/04/22 06:55:02;;;;;;;11.45;8.35;;;19.10;59.80;;;;;;5038412;28;20053;-76
2023/04/22 06:57:28;;;;;;;11.65;8.45;;;19.20;59.70;;;;;;5039722;28;20056;-77
2023/04/22 06:59:54;;;;;;;12.70;7.72;;;19.30;59.00;;;;;;5038291;28;20074;-76
2023/04/22 07:02:21;;;;;;;10.10;7.70;;;19.30;59.30;;;;;;5038390;28;20381;-75
2023/04/22 07:04:47;;;;;;;10.98;7.43;;;19.30;58.90;;;;;;5038082;28;20053;-77
2023/04/22 07:07:13;;;;;;;11.10;7.93;;;19.40;58.80;;;;;;5037818;28;20100;-76
2023/04/22 07:09:39;;;;;;;9.70;7.25;;;19.40;58.80;;;;;;5037726;28;20064;-76
2023/04/22 07:12:05;;;;;;;12.98;8.77;;;19.40;59.20;;;;;;5038508;28;20037;-76
2023/04/22 07:14:31;;;;;;;14.68;9.20;;;19.50;59.30;;;;;;5037984;28;20025;-76
2023/04/22 07:16:57;;;;;;;12.85;8.88;;;19.60;58.80;;;;;;5037852;28;20435;-76
2023/04/22 07:19:23;;;;;;;13.77;9.88;;;19.70;58.50;;;;;;5038219;28;20026;-76
2023/04/22 07:21:49;;;;;;;13.30;9.27;;;19.70;57.80;;;;;;5038133;28;20025;-76
2023/04/22 07:24:15;;;;;;;12.88;9.50;;;19.80;57.40;;;;;;5037793;28;20442;-77
2023/04/22 07:26:42;;;;;;;13.40;9.30;;;19.80;57.30;;;;;;5037869;28;20022;-76
2023/04/22 07:29:10;;;;;;;13.57;9.73;;;19.90;56.90;;;;;;5037885;28;20225;-75
2023/04/22 07:31:36;;;;;;;12.20;9.40;;;19.90;57.40;;;;;;5037830;28;20080;-75
2023/04/22 07:34:02;;;;;;;13.80;10.13;;;19.90;57.50;;;;;;5036834;28;20029;-76
2023/04/22 07:36:28;;;;;;;16.23;11.10;;;20.00;57.20;;;;;;5037918;28;20030;-76
2023/04/22 07:38:54;;;;;;;15.07;10.60;;;20.00;57.20;;;;;;5037877;28;20029;-76
2023/04/22 07:41:20;;;;;;;16.10;10.75;;;20.10;57.00;;;;;;5037666;28;20434;-76
2023/04/22 07:43:46;;;;;;;15.70;11.05;;;20.10;57.10;;;;;;5037680;28;20022;-76
2023/04/22 07:46:12;;;;;;;17.30;11.90;;;20.10;56.90;;;;;;5037513;28;20096;-76
2023/04/22 07:48:37;;;;;;;16.88;11.93;;;20.10;56.30;;;;;;5037179;28;20407;-75
2023/04/22 07:51:03;;;;;;;15.43;10.15;;;20.10;55.90;;;;;;5037126;28;20017;-75
2023/04/22 07:53:29;;;;;;;15.90;11.25;;;20.10;55.90;;;;;;5035654;28;20036;-75
2023/04/22 07:55:55;;;;;;;15.63;10.98;;;20.10;56.30;;;;;;5034542;28;20026;-75
2023/04/22 07:58:21;;;;;;;15.45;10.95;;;20.10;56.30;;;;;;5035128;28;20022;-74
2023/04/22 08:00:47;;;;;;;15.70;11.15;;;20.10;56.50;;;;;;5035034;28;20029;-75
2023/04/22 08:03:12;;;;;;;13.43;9.27;;;20.20;56.10;;;;;;5035114;28;20111;-75
2023/04/22 08:05:38;;;;;;;14.15;10.40;;;20.10;56.00;;;;;;5035013;28;20069;-75
2023/04/22 08:08:05;;;;;;;14.88;10.50;;;20.20;55.00;;;;;;5035912;28;20028;-75
2023/04/22 08:10:32;;;;;;;13.40;9.70;;;20.20;55.40;;;;;;5037354;28;20021;-75
2023/04/22 08:12:57;;;;;;;14.70;9.95;;;20.10;54.80;;;;;;5036894;28;20025;-75
2023/04/22 08:15:24;;;;;;;13.98;9.38;;;20.20;54.80;;;;;;5037108;28;20079;-75
2023/04/22 08:17:50;;;;;;;13.73;9.27;;;20.20;54.70;;;;;;5037055;28;20041;-75
2023/04/22 08:20:17;;;;;;;13.05;9.27;;;20.30;55.10;;;;;;5036745;28;20025;-75
2023/04/22 08:22:43;;;;;;;13.73;9.23;;;20.30;54.40;;;;;;5032157;28;20354;-74
2023/04/22 08:25:09;;;;;;;13.63;9.35;;;20.40;54.40;;;;;;5036657;28;20443;-75
2023/04/22 08:27:36;;;;;;;14.52;10.40;;;20.40;55.60;;;;;;5035142;28;20068;-75
2023/04/22 08:30:01;;;;;;;14.90;10.15;;;20.50;54.60;;;;;;5034654;28;20033;-75
2023/04/22 08:32:27;;;;;;;13.18;9.65;;;20.40;54.40;;;;;;5034540;28;20026;-75
2023/04/22 08:34:53;;;;;;;14.82;10.75;;;20.40;54.20;;;;;;5034563;28;20084;-75
2023/04/22 08:37:19;;;;;;;14.63;10.10;;;20.40;53.70;;;;;;5034422;28;20029;-75
2023/04/22 08:39:45;;;;;;;18.70;11.20;;;20.30;53.70;;;;;;5034413;28;20056;-75
2023/04/22 08:42:12;;;;;;;13.27;9.80;;;20.30;54.00;;;;;;5034408;28;20057;-75
2023/04/22 08:44:38;;;;;;;14.15;9.07;;;20.30;55.00;;;;;;5035115;28;20025;-75
2023/04/22 08:47:05;;;;;;;13.05;8.98;;;20.40;55.40;;;;;;5036325;28;20044;-75
2023/04/22 08:49:33;;;;;;;14.38;10.05;;;20.40;55.50;;;;;;5036530;28;20070;-75
2023/04/22 08:51:59;;;;;;;14.23;10.15;;;20.50;55.40;;;;;;5035995;28;20049;-74
2023/04/22 08:54:25;;;;;;;12.38;9.20;;;20.50;54.90;;;;;;5036242;28;20052;-75
2023/04/22 08:56:52;;;;;;;14.73;10.18;;;20.60;55.20;;;;;;5036103;28;20517;-75
2023/04/22 08:59:21;;;;;;;13.82;10.38;;;20.60;54.60;;;;;;5036142;28;20029;-75
2023/04/22 09:01:52;;;;;;;12.40;9.45;;;20.70;54.80;;;;;;5035109;28;20109;-75
2023/04/22 09:04:18;;;;;;;13.23;9.43;;;20.80;55.00;;;;;;5035757;28;20033;-75
2023/04/22 09:06:44;;;;;;;10.13;7.32;;;20.80;54.80;;;;;;5035501;28;20025;-75
2023/04/22 09:09:10;;;;;;;10.45;7.43;;;20.90;54.00;;;;;;5035549;28;20095;-76
2023/04/22 09:11:37;;;;;;;11.02;7.15;;;20.90;54.20;;;;;;5035851;28;20439;-75
2023/04/22 09:14:05;;;;;;;11.10;7.78;;;20.90;54.20;;;;;;5036392;28;20025;-75
2023/04/22 09:16:32;;;;;;;9.80;6.80;;;21.00;54.50;;;;;;5035830;28;20048;-75
2023/04/22 09:18:59;;;;;;;12.02;8.70;;;21.10;52.40;;;;;;5036067;28;20033;-75
2023/04/22 09:21:30;;;;;;;11.68;8.25;;;21.00;52.40;;;;;;5034830;28;20063;-75
2023/04/22 09:23:59;;;;;;;11.70;8.40;;;21.00;52.90;;;;;;5035884;28;20026;-75
2023/04/22 09:26:25;;;;;;;11.43;8.15;;;21.00;53.40;;;;;;5035570;28;20021;-74
2023/04/22 09:28:57;;;;;;;11.00;8.23;;;21.10;53.70;;;;;;5035832;28;20064;-75
2023/04/22 09:31:24;;;;;;;11.77;8.32;;;21.10;53.30;;;;;;5036051;28;20021;-76
2023/04/22 09:33:52;;;;;;;11.80;8.55;;;21.20;53.20;;;;;;5035725;28;20025;-74
2023/04/22 09:36:25;;;;;;;13.10;9.25;;;21.20;52.70;;;;;;5035491;28;20489;-75
2023/04/22 09:39:00;;;;;;;14.38;10.05;;;21.20;52.50;;;;;;5035502;28;20071;-75
2023/04/22 09:41:31;;;;;;;11.80;8.32;;;21.10;53.00;;;;;;5035766;28;20025;-75
2023/04/22 09:43:59;;;;;;;11.15;7.38;;;21.20;53.60;;;;;;5035836;28;20029;-75
2023/04/22 09:46:27;;;;;;;10.48;7.35;;;21.20;53.10;;;;;;5035158;28;20033;-75
2023/04/22 09:48:57;;;;;;;9.77;6.90;;;21.30;53.40;;;;;;5035537;28;20052;-75
2023/04/22 09:51:26;;;;;;;13.88;8.82;;;21.40;53.90;;;;;;5034948;28;20459;-75
2023/04/22 09:53:58;;;;;;;13.48;9.40;;;21.40;53.10;;;;;;5034417;28;20048;-75
2023/04/22 09:56:49;;;;;;;12.15;8.57;;;21.50;52.90;;;;;;5035215;28;20022;-75
2023/04/22 09:59:26;;;;;;;13.10;7.85;;;21.50;52.70;;;;;;5035284;28;20021;-75
2023/04/22 10:01:59;;;;;;;10.77;7.38;;;21.60;51.70;;;;;;5034678;28;20014;-75
2023/04/22 10:04:25;;;;;;;13.67;9.40;;;21.60;52.60;;;;;;5033959;28;20030;-75
2023/04/22 10:06:52;;;;;;;12.43;8.38;;;21.60;52.20;;;;;;5035119;28;20026;-75
2023/04/22 10:09:20;;;;;;;13.27;8.95;;;21.60;52.60;;;;;;5033997;28;20022;-75
2023/04/22 10:11:48;;;;;;;13.13;8.32;;;21.70;52.20;;;;;;5034738;28;20025;-75
2023/04/22 10:14:14;;;;;;;14.57;9.55;;;21.60;52.90;;;;;;5035063;28;20026;-75
2023/04/22 10:16:44;;;;;;;13.55;8.73;;;21.70;53.40;;;;;;5034999;28;20033;-75
2023/04/22 10:19:14;;;;;;;13.70;9.80;;;21.70;53.50;;;;;;5036980;28;20032;-75
2023/04/22 10:21:43;;;;;;;13.20;8.70;;;21.80;54.00;;;;;;5039288;28;20393;-75
2023/04/22 10:24:19;;;;;;;12.15;8.70;;;21.80;53.90;;;;;;5038840;28;20120;-75
2023/04/22 10:26:49;;;;;;;14.45;10.18;;;21.90;53.60;;;;;;5039523;28;20029;-75
2023/04/22 10:29:17;;;;;;;15.85;9.93;;;21.90;53.90;;;;;;5038929;28;20442;-75
2023/04/22 10:31:50;;;;;;;15.38;10.80;;;21.90;53.60;;;;;;5038773;28;20435;-75
2023/04/22 10:34:17;;;;;;;13.43;9.13;;;21.90;53.80;;;;;;5039141;28;20103;-75
2023/04/22 10:36:59;;;;;;;14.50;10.00;;;21.90;53.20;;;;;;5039050;28;20029;-75
2023/04/22 10:39:26;;;;;;;12.88;9.25;;;21.90;53.90;;;;;;5038661;28;20037;-75
2023/04/22 10:42:16;;;;;;;15.40;9.82;;;22.00;53.40;;;;;;5038619;28;20065;-75
2023/04/22 10:44:49;;;;;;;14.23;9.25;;;22.10;54.00;;;;;;5039115;28;20036;-75
2023/04/22 10:47:25;;;;;;;13.88;10.23;;;22.10;54.60;;;;;;5038873;28;20114;-76
2023/04/22 10:49:51;;;;;;;16.15;11.40;;;22.20;53.80;;;;;;5038496;28;20354;-75
2023/04/22 10:52:29;;;;;;;15.85;11.60;;;22.20;53.80;;;;;;5038293;28;20064;-75
2023/04/22 10:54:57;;;;;;;15.80;10.68;;;22.20;53.70;;;;;;5037506;28;20017;-75
2023/04/22 10:57:36;;;;;;;14.23;10.50;;;22.20;54.20;;;;;;5038311;28;20040;-75
2023/04/22 11:00:18;;;;;;;14.60;9.68;;;22.20;53.60;;;;;;5038668;28;20056;-75
2023/04/22 11:02:45;;;;;;;15.43;10.63;;;22.20;53.80;;;;;;5038378;28;20117;-75
2023/04/22 11:05:19;;;;;;;12.90;9.13;;;22.30;53.90;;;;;;5038051;28;20451;-76
2023/04/22 11:07:49;;;;;;;14.63;9.50;;;22.40;53.70;;;;;;5038453;28;20060;-75
2023/04/22 11:10:39;;;;;;;13.93;9.05;;;22.40;54.20;;;;;;5038136;28;20443;-75
2023/04/22 11:13:10;;;;;;;14.07;9.35;;;22.50;54.70;;;;;;5038322;28;20043;-75
2023/04/22 11:15:38;;;;;;;12.77;8.90;;;22.50;54.50;;;;;;5038060;28;20470;-75
2023/04/22 11:18:09;;;;;;;13.70;9.88;;;22.60;54.50;;;;;;5038030;28;20116;-75
2023/04/22 11:20:36;;;;;;;13.05;9.52;;;22.70;54.00;;;;;;5038063;28;20482;-75
2023/04/22 11:23:02;;;;;;;13.23;9.48;;;22.80;53.40;;;;;;5037853;28;20120;-75
2023/04/22 11:25:28;;;;;;;14.38;10.02;;;22.80;53.50;;;;;;5037880;28;20390;-75
2023/04/22 11:27:55;;;;;;;12.27;9.32;;;22.90;53.10;;;;;;5037888;28;20021;-76
2023/04/22 11:30:24;;;;;;;15.90;9.75;;;22.90;53.50;;;;;;5036839;28;20022;-75
2023/04/22 11:32:58;;;;;;;13.38;9.52;;;22.90;53.20;;;;;;5037720;28;20033;-75
2023/04/22 11:35:33;;;;;;;15.07;10.80;;;22.90;52.80;;;;;;5038059;28;20056;-75
2023/04/22 11:38:03;;;;;;;16.58;11.57;;;23.00;54.00;;;;;;5038033;28;20108;-75
2023/04/22 11:40:35;;;;;;;15.35;10.60;;;23.00;52.60;;;;;;5037925;28;20041;-76
2023/04/22 11:43:04;;;;;;;16.85;12.10;;;22.90;52.30;;;;;;5037817;28;20033;-75
2023/04/22 11:45:32;;;;;;;15.73;11.15;;;22.90;52.10;;;;;;5038243;28;20033;-75
2023/04/22 11:47:58;;;;;;;13.75;10.27;;;22.80;52.50;;;;;;5037562;28;20108;-75
2023/04/22 11:50:26;;;;;;;15.52;10.85;;;22.80;52.30;;;;;;5037458;28;20022;-75
2023/04/22 11:52:53;;;;;;;14.45;10.85;;;22.70;52.60;;;;;;5037243;28;20128;-75
2023/04/22 11:55:31;;;;;;;14.70;10.88;;;22.60;52.40;;;;;;5037401;28;20033;-74
2023/04/22 11:58:08;;;;;;;17.55;12.38;;;22.60;52.90;;;;;;5037314;28;20362;-74
2023/04/22 12:00:42;;;;;;;14.48;10.32;;;22.50;53.00;;;;;;5037574;28;20030;-74
2023/04/22 12:03:23;;;;;;;14.73;10.13;;;22.40;52.90;;;;;;5036234;28;20041;-74
2023/04/22 12:06:03;;;;;;;13.60;9.13;;;22.40;53.20;;;;;;5037678;28;20079;-74
2023/04/22 12:08:35;;;;;;;12.85;9.35;;;22.50;53.50;;;;;;5037147;28;20025;-74
2023/04/22 12:11:06;;;;;;;14.25;9.70;;;22.50;53.40;;;;;;5036920;28;20439;-74
2023/04/22 12:13:41;;;;;;;14.68;9.80;;;22.50;53.30;;;;;;5037046;28;20022;-75
2023/04/22 12:16:13;;;;;;;13.10;9.23;;;22.60;52.90;;;;;;5037546;28;20445;-74
2023/04/22 12:18:49;;;;;;;12.65;8.18;;;22.60;53.10;;;;;;5037171;28;20029;-74
2023/04/22 12:21:23;;;;;;;12.15;9.23;;;22.70;53.40;;;;;;5036731;28;20056;-75
2023/04/22 12:23:54;;;;;;;13.68;9.15;;;22.70;53.50;;;;;;5037024;28;20033;-75
2023/04/22 12:26:23;;;;;;;14.10;10.18;;;22.70;53.10;;;;;;5036777;28;20037;-75
2023/04/22 12:28:50;;;;;;;14.88;10.40;;;22.60;53.10;;;;;;5036712;28;20469;-77
2023/04/22 12:31:17;;;;;;;12.70;9.00;;;22.60;53.20;;;;;;5035609;28;20374;-74
2023/04/22 12:33:44;;;;;;;14.90;9.77;;;22.60;52.70;;;;;;5036438;28;20021;-75
2023/04/22 12:36:10;;;;;;;12.13;8.63;;;22.60;52.90;;;;;;5036316;28;20459;-74
2023/04/22 12:38:36;;;;;;;13.50;9.25;;;22.60;52.90;;;;;;5036437;28;20031;-74
2023/04/22 12:41:04;;;;;;;12.07;8.60;;;22.50;53.10;;;;;;5036332;28;20025;-74